createdAt,value
2022-12-04T00:02:27.292Z,20.82
2022-12-04T00:05:12.477Z,20.80
2022-12-04T00:07:57.836Z,20.76
2022-12-04T00:10:44.110Z,20.72
2022-12-04T00:13:29.338Z,20.70
2022-12-04T00:16:17.416Z,20.66
2022-12-04T00:19:02.908Z,20.63
2022-12-04T00:21:49.776Z,20.60
2022-12-04T00:24:35.359Z,20.55
2022-12-04T00:27:20.543Z,20.55
2022-12-04T00:30:06.528Z,20.52
2022-12-04T00:32:51.936Z,20.50
2022-12-04T00:35:37.300Z,20.47
2022-12-04T00:38:22.478Z,20.45
2022-12-04T00:41:12.726Z,20.42
2022-12-04T00:43:59.049Z,20.41
2022-12-04T00:46:44.154Z,20.38
2022-12-04T00:49:29.464Z,20.38
2022-12-04T00:52:14.689Z,20.37
2022-12-04T00:54:59.992Z,20.33
2022-12-04T00:57:45.415Z,20.32
2022-12-04T01:00:30.784Z,20.31
2022-12-04T01:03:16.162Z,20.29
2022-12-04T01:06:01.836Z,20.28
2022-12-04T01:08:48.137Z,20.26
2022-12-04T01:11:34.435Z,20.26
2022-12-04T01:14:19.782Z,20.23
2022-12-04T01:17:05.046Z,20.23
2022-12-04T01:19:50.366Z,20.21
2022-12-04T01:22:35.715Z,20.20
2022-12-04T01:25:21.141Z,20.19
2022-12-04T01:28:06.334Z,20.17
2022-12-04T01:31:09.118Z,20.17
2022-12-04T01:33:54.745Z,20.15
2022-12-04T01:36:40.051Z,20.14
2022-12-04T01:39:25.359Z,20.12
2022-12-04T01:42:15.629Z,20.12
2022-12-04T01:45:36.651Z,20.11
2022-12-04T01:48:30.940Z,20.09
2022-12-04T01:51:27.353Z,20.08
2022-12-04T01:54:22.883Z,20.07
2022-12-04T01:57:14.229Z,20.06
2022-12-04T02:00:05.394Z,20.04
2022-12-04T02:02:51.328Z,20.04
2022-12-04T02:05:36.830Z,20.02
2022-12-04T02:08:22.369Z,20.03
2022-12-04T02:11:42.152Z,20.00
2022-12-04T02:14:56.418Z,20.00
2022-12-04T02:17:59.995Z,19.98
2022-12-04T02:21:08.155Z,19.98
2022-12-04T02:24:02.239Z,19.97
2022-12-04T02:27:04.226Z,19.97
2022-12-04T02:29:59.495Z,19.95
2022-12-04T02:32:58.714Z,19.93
2022-12-04T02:36:03.374Z,19.93
2022-12-04T02:39:07.850Z,19.91
2022-12-04T02:42:03.596Z,19.91
2022-12-04T02:45:03.689Z,19.91
2022-12-04T02:47:49.371Z,19.91
2022-12-04T02:50:40.438Z,19.90
2022-12-04T02:53:32.667Z,19.90
2022-12-04T02:56:26.605Z,19.89
2022-12-04T02:59:20.524Z,19.88
2022-12-04T03:02:10.774Z,19.87
2022-12-04T03:04:59.917Z,19.87
2022-12-04T03:07:52.436Z,19.87
2022-12-04T03:10:44.217Z,19.85
2022-12-04T03:13:34.196Z,19.85
2022-12-04T03:16:28.199Z,19.85
2022-12-04T03:19:21.279Z,19.85
2022-12-04T03:22:10.599Z,19.84
2022-12-04T03:24:57.416Z,19.83
2022-12-04T03:27:53.629Z,19.83
2022-12-04T03:30:50.021Z,19.83
2022-12-04T03:33:42.649Z,19.81
2022-12-04T03:36:34.801Z,19.83
2022-12-04T03:39:42.704Z,19.82
2022-12-04T03:42:53.309Z,19.80
2022-12-04T03:45:52.607Z,19.80
2022-12-04T03:49:29.789Z,19.79
2022-12-04T03:52:24.612Z,19.79
2022-12-04T03:55:43.515Z,19.78
2022-12-04T03:58:32.088Z,19.78
2022-12-04T04:01:23.160Z,19.77
2022-12-04T04:04:13.881Z,19.77
2022-12-04T04:07:12.180Z,19.76
2022-12-04T04:10:03.647Z,19.77
2022-12-04T04:13:14.728Z,19.76
2022-12-04T04:16:21.639Z,19.75
2022-12-04T04:19:27.884Z,19.75
2022-12-04T04:22:32.845Z,19.75
2022-12-04T04:25:24.332Z,19.75
2022-12-04T04:28:35.646Z,19.74
2022-12-04T04:31:50.343Z,19.73
2022-12-04T04:35:20.912Z,19.73
2022-12-04T04:38:06.435Z,19.72
2022-12-04T04:41:00.540Z,19.71
2022-12-04T04:44:08.378Z,19.72
2022-12-04T04:46:59.796Z,19.73
2022-12-04T04:49:47.511Z,19.70
2022-12-04T04:52:34.855Z,19.71
2022-12-04T04:55:21.018Z,19.71
2022-12-04T04:58:13.042Z,19.71
2022-12-04T05:01:04.983Z,19.69
2022-12-04T05:03:50.288Z,19.71
2022-12-04T05:06:35.464Z,19.70
2022-12-04T05:09:20.892Z,19.70
2022-12-04T05:12:06.418Z,19.70
2022-12-04T05:14:52.009Z,19.70
2022-12-04T05:17:37.552Z,19.70
2022-12-04T05:20:22.901Z,19.70
2022-12-04T05:23:08.344Z,19.72
2022-12-04T05:26:00.238Z,19.71
2022-12-04T05:28:45.705Z,19.71
2022-12-04T05:31:30.997Z,19.70
2022-12-04T05:34:16.109Z,19.69
2022-12-04T05:37:01.428Z,19.71
2022-12-04T05:39:47.123Z,19.72
2022-12-04T05:42:32.591Z,19.72
2022-12-04T05:45:18.122Z,19.72
2022-12-04T05:48:03.584Z,19.73
2022-12-04T05:50:48.927Z,19.75
2022-12-04T05:53:34.520Z,19.75
2022-12-04T05:56:20.296Z,19.75
2022-12-04T05:59:05.848Z,19.76
2022-12-04T06:01:51.139Z,19.77
2022-12-04T06:04:37.478Z,19.78
2022-12-04T06:07:22.868Z,19.77
2022-12-04T06:10:08.294Z,19.79
2022-12-04T06:12:57.725Z,19.79
2022-12-04T06:15:43.257Z,19.79
2022-12-04T06:18:28.458Z,19.80
2022-12-04T06:21:13.705Z,19.79
2022-12-04T06:23:59.096Z,19.80
2022-12-04T06:27:10.933Z,19.79
2022-12-04T06:29:50.294Z,19.80
2022-12-04T06:32:35.587Z,19.78
2022-12-04T06:35:20.853Z,19.83
2022-12-04T06:38:08.138Z,19.85
2022-12-04T06:40:53.639Z,19.88
2022-12-04T06:43:39.667Z,19.93
2022-12-04T06:46:28.460Z,19.96
2022-12-04T06:49:13.974Z,19.98
2022-12-04T06:51:59.469Z,19.96
2022-12-04T06:54:44.576Z,19.96
2022-12-04T06:57:29.780Z,19.99
2022-12-04T07:00:15.814Z,20.00
2022-12-04T07:03:01.005Z,20.03
2022-12-04T07:05:46.587Z,20.07
2022-12-04T07:08:32.177Z,20.07
2022-12-04T07:11:18.784Z,20.12
2022-12-04T07:14:04.804Z,20.15
2022-12-04T07:16:50.292Z,20.20
2022-12-04T07:19:35.522Z,20.26
2022-12-04T07:22:20.757Z,20.30
2022-12-04T07:25:06.194Z,20.37
2022-12-04T07:27:51.518Z,20.42
2022-12-04T07:30:38.401Z,20.45
2022-12-04T07:33:23.766Z,20.50
2022-12-04T07:36:13.411Z,20.54
2022-12-04T07:38:59.053Z,20.55
2022-12-04T07:41:44.172Z,20.59
2022-12-04T07:44:32.685Z,20.63
2022-12-04T07:47:17.864Z,20.63
2022-12-04T07:50:04.570Z,20.66
2022-12-04T07:52:50.262Z,20.69
2022-12-04T07:55:35.630Z,20.72
2022-12-04T07:58:21.148Z,20.75
2022-12-04T08:01:12.524Z,20.78
2022-12-04T08:03:59.490Z,20.79
2022-12-04T08:06:45.825Z,20.79
2022-12-04T08:09:31.417Z,20.81
2022-12-04T08:12:16.876Z,20.82
2022-12-04T08:15:02.233Z,20.79
2022-12-04T08:17:47.664Z,20.77
2022-12-04T08:20:32.976Z,20.81
2022-12-04T08:23:18.317Z,20.81
2022-12-04T08:26:05.380Z,20.77
2022-12-04T08:28:53.618Z,20.73
2022-12-04T08:31:39.338Z,20.70
2022-12-04T08:34:25.068Z,20.69
2022-12-04T08:37:10.587Z,20.65
2022-12-04T08:39:56.372Z,20.61
2022-12-04T08:42:41.936Z,20.58
2022-12-04T08:45:27.273Z,20.58
2022-12-04T08:48:12.331Z,20.55
2022-12-04T08:50:58.163Z,20.55
2022-12-04T08:53:43.750Z,20.52
2022-12-04T08:56:30.056Z,20.51
2022-12-04T08:59:15.694Z,20.50
2022-12-04T09:02:01.075Z,20.52
2022-12-04T09:04:46.291Z,20.56
2022-12-04T09:07:31.381Z,20.60
2022-12-04T09:10:16.728Z,20.66
2022-12-04T09:13:02.088Z,20.69
2022-12-04T09:15:47.494Z,20.73
2022-12-04T09:18:33.621Z,20.73
2022-12-04T09:21:21.309Z,20.73
2022-12-04T09:24:06.760Z,20.76
2022-12-04T09:26:52.169Z,20.77
2022-12-04T09:29:37.717Z,20.76
2022-12-04T09:32:23.752Z,20.79
2022-12-04T09:35:09.344Z,20.80
2022-12-04T09:37:54.701Z,20.83
2022-12-04T09:41:25.092Z,20.79
2022-12-04T09:44:20.049Z,20.79
2022-12-04T09:53:05.392Z,20.77
2022-12-04T09:56:04.181Z,20.73
2022-12-04T09:59:10.535Z,20.70
2022-12-04T10:02:00.031Z,20.67
2022-12-04T10:04:44.712Z,20.59
2022-12-04T10:07:44.501Z,20.61
2022-12-04T10:10:29.599Z,20.69
2022-12-04T11:22:57.267Z,21.00
2022-12-04T11:25:50.363Z,20.99
2022-12-04T11:28:42.424Z,20.99
2022-12-04T11:31:29.781Z,21.00
2022-12-04T11:34:22.504Z,21.00
2022-12-04T11:37:20.947Z,21.00
2022-12-04T11:40:17.129Z,21.02
2022-12-04T11:43:12.397Z,21.06
2022-12-04T11:46:00.916Z,21.07
2022-12-04T11:48:46.419Z,21.09
2022-12-04T11:51:47.156Z,21.09
2022-12-04T11:54:41.645Z,21.09
2022-12-04T11:57:47.685Z,21.10
2022-12-04T12:00:40.755Z,21.10
2022-12-04T12:03:49.057Z,21.09
2022-12-04T12:06:49.969Z,21.09
2022-12-04T12:10:10.332Z,21.09
2022-12-04T12:13:20.660Z,21.09
2022-12-04T12:16:21.012Z,21.09
2022-12-04T12:19:28.486Z,21.10
2022-12-04T12:22:28.590Z,21.11
2022-12-04T12:25:22.382Z,21.09
2022-12-04T12:28:35.442Z,21.13
2022-12-04T12:31:55.740Z,21.16
2022-12-04T12:34:43.207Z,21.18
2022-12-04T12:38:03.229Z,21.21
2022-12-04T12:46:22.034Z,21.21
2022-12-04T12:49:31.566Z,21.17
2022-12-04T12:52:29.851Z,21.16
2022-12-04T12:55:24.326Z,21.15
2022-12-04T12:58:08.712Z,21.17
2022-12-04T13:01:29.821Z,21.14
2022-12-04T13:04:34.620Z,21.16
2022-12-04T13:07:27.782Z,21.21
2022-12-04T13:10:15.718Z,21.21
2022-12-04T13:13:06.887Z,21.21
2022-12-04T13:16:23.173Z,21.21
2022-12-04T13:19:29.940Z,21.23
2022-12-04T13:22:46.235Z,21.27
2022-12-04T13:25:47.075Z,21.31
2022-12-04T13:29:00.197Z,21.33
2022-12-04T13:32:22.534Z,21.33
2022-12-04T13:35:50.036Z,21.35
2022-12-04T13:38:38.320Z,21.34
2022-12-04T13:41:26.046Z,21.34
2022-12-04T13:44:14.688Z,21.33
2022-12-04T13:47:03.406Z,21.37
2022-12-04T13:49:49.209Z,21.37
2022-12-04T13:52:41.363Z,21.38
2022-12-04T13:55:39.360Z,21.38
2022-12-04T13:58:30.605Z,21.39
2022-12-04T14:01:28.823Z,21.36
2022-12-04T14:04:29.566Z,21.31
2022-12-04T14:07:25.711Z,21.29
2022-12-04T14:10:14.424Z,21.27
2022-12-04T14:13:05.903Z,21.28
2022-12-04T14:16:04.563Z,21.26
2022-12-04T14:18:54.050Z,21.22
2022-12-04T14:21:45.603Z,21.17
2022-12-04T14:24:37.227Z,21.15
2022-12-04T14:27:42.521Z,21.19
2022-12-04T14:30:39.282Z,21.15
2022-12-04T14:33:26.738Z,21.11
2022-12-04T14:36:19.161Z,21.06
2022-12-04T14:39:20.967Z,21.03
2022-12-04T14:42:13.482Z,20.95
2022-12-04T14:45:00.975Z,20.93
2022-12-04T14:48:15.651Z,20.89
2022-12-04T14:51:09.652Z,20.84
2022-12-04T14:54:07.605Z,20.89
2022-12-04T14:57:04.883Z,20.95
2022-12-04T14:59:53.626Z,20.92
2022-12-04T15:02:40.503Z,20.87
2022-12-04T15:05:29.371Z,20.84
2022-12-04T15:08:15.329Z,20.83
2022-12-04T15:11:19.214Z,20.83
2022-12-04T15:14:13.028Z,20.80
2022-12-04T15:17:04.807Z,20.79
2022-12-04T15:19:50.100Z,20.78
2022-12-04T15:22:35.556Z,20.76
2022-12-04T15:25:25.287Z,20.76
2022-12-04T15:28:18.427Z,20.73
2022-12-04T15:31:10.263Z,20.73
2022-12-04T15:34:00.653Z,20.73
2022-12-04T15:37:03.226Z,20.73
2022-12-04T15:39:50.823Z,20.73
2022-12-04T15:42:37.534Z,20.69
2022-12-04T15:45:34.799Z,20.72
2022-12-04T15:48:29.372Z,20.77
2022-12-04T15:51:18.975Z,20.82
2022-12-04T15:54:04.632Z,20.84
2022-12-04T15:57:01.129Z,20.88
2022-12-04T15:59:51.894Z,20.89
2022-12-04T16:02:42.870Z,20.90
2022-12-04T16:05:36.455Z,20.88
2022-12-04T16:08:25.412Z,20.90
2022-12-04T16:17:02.645Z,20.88
2022-12-04T16:19:50.784Z,20.89
2022-12-04T16:22:35.752Z,20.92
2022-12-04T16:25:20.482Z,20.94
2022-12-04T16:28:05.704Z,20.96
2022-12-04T16:30:54.225Z,20.97
2022-12-04T16:33:39.306Z,21.00
2022-12-04T17:45:28.958Z,21.16
2022-12-04T17:48:16.705Z,21.16
2022-12-04T17:51:23.076Z,21.16
2022-12-04T17:54:08.282Z,21.18
2022-12-04T17:56:57.787Z,21.19
2022-12-04T17:59:44.660Z,21.20
2022-12-04T18:02:30.312Z,21.18
2022-12-04T18:05:17.228Z,21.20
2022-12-04T18:08:02.617Z,21.23
2022-12-04T18:10:48.537Z,21.21
2022-12-04T18:13:34.605Z,21.21
2022-12-04T18:16:20.579Z,21.20
2022-12-04T18:19:07.816Z,21.20
2022-12-04T18:21:54.415Z,21.17
2022-12-04T18:24:40.106Z,21.17
2022-12-04T18:27:26.261Z,21.16
2022-12-04T18:30:12.357Z,21.16
2022-12-04T18:32:58.430Z,21.17
2022-12-04T18:35:44.048Z,21.18
2022-12-04T18:38:31.057Z,21.19
2022-12-04T18:41:16.460Z,21.21
2022-12-04T18:44:03.157Z,21.22
2022-12-04T18:46:48.441Z,21.26
2022-12-04T18:49:33.754Z,21.26
2022-12-04T19:00:41.322Z,21.35
2022-12-04T19:03:26.098Z,21.40
2022-12-04T19:06:12.245Z,21.43
2022-12-04T19:09:00.093Z,21.44
2022-12-04T19:11:45.623Z,21.42
2022-12-04T19:14:31.505Z,21.41
2022-12-04T19:17:16.948Z,21.35
2022-12-04T19:20:02.433Z,21.33
2022-12-04T19:22:47.948Z,21.28
2022-12-04T19:25:33.536Z,21.25
2022-12-04T19:28:18.927Z,21.23
2022-12-04T19:31:05.000Z,21.21
2022-12-04T19:33:51.124Z,21.19
2022-12-04T19:36:36.695Z,21.14
2022-12-04T19:39:22.505Z,21.13
2022-12-04T19:42:09.608Z,21.09
2022-12-04T19:44:56.585Z,21.12
2022-12-04T19:47:43.451Z,21.12
2022-12-04T19:50:29.305Z,21.11
2022-12-04T19:53:14.620Z,21.09
2022-12-04T19:56:05.546Z,21.07
2022-12-04T19:58:52.495Z,21.06
2022-12-04T20:01:38.601Z,21.02
2022-12-04T20:04:24.001Z,20.97
2022-12-04T20:07:09.388Z,20.94
2022-12-04T20:09:54.730Z,20.88
2022-12-04T20:12:40.824Z,20.89
2022-12-04T20:15:26.430Z,20.95
2022-12-04T20:18:11.932Z,20.97
2022-12-04T20:20:59.055Z,21.01
2022-12-04T20:23:50.646Z,21.02
2022-12-04T20:26:39.086Z,21.04
2022-12-04T20:29:24.889Z,21.10
2022-12-04T20:32:10.566Z,21.11
2022-12-04T20:34:55.840Z,21.13
2022-12-04T20:37:41.421Z,21.15
2022-12-04T20:40:26.851Z,21.18
2022-12-04T20:43:12.776Z,21.20
2022-12-04T20:45:58.191Z,21.22
2022-12-04T20:48:48.285Z,21.25
2022-12-04T20:51:39.015Z,21.27
2022-12-04T20:54:25.501Z,21.29
2022-12-04T20:57:10.977Z,21.28
2022-12-04T20:59:57.099Z,21.30
2022-12-04T21:02:43.658Z,21.33
2022-12-04T21:05:29.183Z,21.33
2022-12-04T21:08:14.607Z,21.29
2022-12-04T21:10:59.774Z,21.31
2022-12-04T21:14:03.517Z,21.33
2022-12-04T21:16:49.848Z,21.32
2022-12-04T21:19:35.249Z,21.31
2022-12-04T21:22:21.163Z,21.31
2022-12-04T21:25:08.950Z,21.31
2022-12-04T21:27:54.908Z,21.31
2022-12-04T21:30:40.205Z,21.30
2022-12-04T21:33:25.893Z,21.32
2022-12-04T21:36:11.529Z,21.32
2022-12-04T21:38:57.253Z,21.31
2022-12-04T21:42:01.027Z,21.30
2022-12-04T21:44:46.864Z,21.32
2022-12-04T21:47:32.910Z,21.34
2022-12-04T21:50:18.496Z,21.36
2022-12-04T21:53:03.916Z,21.39
2022-12-04T21:55:55.949Z,21.40
2022-12-04T21:58:41.880Z,21.44
2022-12-04T22:01:28.456Z,21.43
2022-12-04T22:04:13.927Z,21.46
2022-12-04T22:06:59.380Z,21.48
2022-12-04T22:09:44.931Z,21.49
2022-12-04T22:15:39.072Z,21.43
2022-12-04T22:18:24.835Z,21.38
2022-12-04T22:21:14.573Z,21.34
2022-12-04T22:24:01.868Z,21.27
2022-12-04T22:26:47.225Z,21.24
2022-12-04T22:32:37.944Z,21.14
2022-12-04T22:35:24.306Z,21.11
2022-12-04T22:38:09.934Z,21.10
2022-12-04T22:40:55.110Z,21.03
2022-12-04T22:43:41.149Z,21.01
2022-12-04T22:46:26.413Z,20.99
2022-12-04T22:49:11.723Z,20.97
2022-12-04T22:51:57.157Z,20.93
2022-12-04T22:54:42.480Z,20.92
2022-12-04T22:57:28.381Z,20.89
2022-12-04T23:00:14.265Z,20.85
2022-12-04T23:02:59.787Z,20.83
2022-12-04T23:05:45.037Z,20.81
2022-12-04T23:08:30.573Z,20.79
2022-12-04T23:11:19.320Z,20.77
2022-12-04T23:14:06.989Z,20.75
2022-12-04T23:16:52.488Z,20.75
2022-12-04T23:19:38.441Z,20.73
2022-12-04T23:22:23.877Z,20.69
2022-12-04T23:25:09.375Z,20.68
2022-12-04T23:27:54.961Z,20.65
2022-12-04T23:30:45.636Z,20.66
2022-12-04T23:33:32.292Z,20.64
2022-12-04T23:36:17.879Z,20.64
2022-12-04T23:39:03.596Z,20.62
2022-12-04T23:41:49.185Z,20.62
2022-12-04T23:44:34.731Z,20.60
2022-12-04T23:47:20.083Z,20.58
2022-12-04T23:50:05.922Z,20.55
2022-12-04T23:52:51.323Z,20.55
2022-12-04T23:55:36.521Z,20.54
2022-12-04T23:58:21.694Z,20.53
